sensor_id;sensor_type;location;lat;lon;timestamp;pressure;altitude;pressure_sealevel;temperature;humidity
86034;BME280;76606;52.388;16.914;2024-03-22T00:00:09;101124.0;;;8.98;91.39
86034;BME280;76606;52.388;16.914;2024-03-22T00:15:09;101127.0;;;8.84;92.91
86034;BME280;76606;52.388;16.914;2024-03-22T00:30:09;101101.0;;;8.73;92.25
86034;BME280;76606;52.388;16.914;2024-03-22T00:45:09;101090.0;;;8.51;92.13
86034;BME280;76606;52.388;16.914;2024-03-22T01:00:09;101089.0;;;8.47;90.99
86034;BME280;76606;52.388;16.914;2024-03-22T01:20:09;101087.0;;;8.42;91.6
86034;BME280;76606;52.388;16.914;2024-03-22T01:35:09;101094.0;;;8.44;91.93
86034;BME280;76606;52.388;16.914;2024-03-22T01:50:09;101098.0;;;8.35;91.93
86034;BME280;76606;52.388;16.914;2024-03-22T02:05:09;101087.0;;;8.24;91.67
86034;BME280;76606;52.388;16.914;2024-03-22T02:20:09;101069.0;;;8.22;91.35
86034;BME280;76606;52.388;16.914;2024-03-22T02:35:09;101057.0;;;8.12;89.66
86034;BME280;76606;52.388;16.914;2024-03-22T02:50:09;101053.0;;;8.07;89.92
86034;BME280;76606;52.388;16.914;2024-03-22T03:05:09;101060.0;;;7.97;89.47
86034;BME280;76606;52.388;16.914;2024-03-22T03:20:09;101063.0;;;7.73;87.72
86034;BME280;76606;52.388;16.914;2024-03-22T03:35:09;101061.0;;;7.57;88.42
86034;BME280;76606;52.388;16.914;2024-03-22T03:50:09;101067.0;;;7.5;87.84
86034;BME280;76606;52.388;16.914;2024-03-22T04:05:09;101070.0;;;7.37;86.91
86034;BME280;76606;52.388;16.914;2024-03-22T04:20:09;101079.0;;;7.2;85.47
86034;BME280;76606;52.388;16.914;2024-03-22T04:35:09;101073.0;;;7.19;86.04
86034;BME280;76606;52.388;16.914;2024-03-22T04:50:09;101050.0;;;7.07;86.74
86034;BME280;76606;52.388;16.914;2024-03-22T05:05:09;101035.0;;;7.05;86.91
86034;BME280;76606;52.388;16.914;2024-03-22T05:20:09;101030.0;;;7.1;87.28
86034;BME280;76606;52.388;16.914;2024-03-22T05:35:09;101028.0;;;7.05;87.98
86034;BME280;76606;52.388;16.914;2024-03-22T05:50:09;101025.0;;;7.13;87.89
86034;BME280;76606;52.388;16.914;2024-03-22T06:05:09;101026.0;;;7.32;87.47
86034;BME280;76606;52.388;16.914;2024-03-22T06:20:09;101022.0;;;7.28;86.73
86034;BME280;76606;52.388;16.914;2024-03-22T06:35:09;101003.0;;;7.5;86.22
86034;BME280;76606;52.388;16.914;2024-03-22T06:50:09;101009.0;;;7.57;86.7
86034;BME280;76606;52.388;16.914;2024-03-22T07:05:09;100978.0;;;7.5;86.26
86034;BME280;76606;52.388;16.914;2024-03-22T07:20:09;100975.0;;;7.74;84.74
86034;BME280;76606;52.388;16.914;2024-03-22T07:35:09;100968.0;;;7.8;84.25
86034;BME280;76606;52.388;16.914;2024-03-22T07:50:09;100951.0;;;8.04;83.37
86034;BME280;76606;52.388;16.914;2024-03-22T08:05:09;100930.0;;;8.25;81.83
86034;BME280;76606;52.388;16.914;2024-03-22T08:20:09;100938.0;;;8.71;79.43
86034;BME280;76606;52.388;16.914;2024-03-22T08:35:09;100928.0;;;8.93;78.74
86034;BME280;76606;52.388;16.914;2024-03-22T08:50:09;100906.0;;;9.11;78.27
86034;BME280;76606;52.388;16.914;2024-03-22T09:05:09;100886.0;;;9.62;76.96
86034;BME280;76606;52.388;16.914;2024-03-22T09:20:09;100862.0;;;10.1;74.74
86034;BME280;76606;52.388;16.914;2024-03-22T09:35:09;100852.0;;;10.3;74.16
86034;BME280;76606;52.388;16.914;2024-03-22T09:50:09;100827.0;;;10.4;73.77
86034;BME280;76606;52.388;16.914;2024-03-22T10:05:09;100816.0;;;11.82;68.99
86034;BME280;76606;52.388;16.914;2024-03-22T10:20:09;100788.0;;;11.61;68.61
86034;BME280;76606;52.388;16.914;2024-03-22T10:35:09;100776.0;;;11.2;68.88
86034;BME280;76606;52.388;16.914;2024-03-22T10:50:09;100741.0;;;11.28;70.52
86034;BME280;76606;52.388;16.914;2024-03-22T11:05:09;100730.0;;;11.21;71.54
86034;BME280;76606;52.388;16.914;2024-03-22T11:20:09;100719.0;;;10.97;73.71
86034;BME280;76606;52.388;16.914;2024-03-22T11:40:09;100690.0;;;10.93;75.93
86034;BME280;76606;52.388;16.914;2024-03-22T11:55:09;100647.0;;;11.08;76.38
86034;BME280;76606;52.388;16.914;2024-03-22T12:10:09;100630.0;;;11.0;74.42
86034;BME280;76606;52.388;16.914;2024-03-22T12:25:09;100610.0;;;11.43;73.24
86034;BME280;76606;52.388;16.914;2024-03-22T12:40:09;100584.0;;;11.59;71.96
86034;BME280;76606;52.388;16.914;2024-03-22T12:55:09;100551.0;;;11.61;70.95
86034;BME280;76606;52.388;16.914;2024-03-22T13:10:09;100528.0;;;11.68;69.73
86034;BME280;76606;52.388;16.914;2024-03-22T13:25:09;100522.0;;;11.73;68.91
86034;BME280;76606;52.388;16.914;2024-03-22T13:40:09;100501.0;;;11.9;67.3
86034;BME280;76606;52.388;16.914;2024-03-22T13:55:09;100468.0;;;12.22;66.52
86034;BME280;76606;52.388;16.914;2024-03-22T14:10:09;100446.0;;;12.31;66.0
86034;BME280;76606;52.388;16.914;2024-03-22T14:25:09;100416.0;;;12.4;66.17
86034;BME280;76606;52.388;16.914;2024-03-22T14:40:09;100400.0;;;12.74;64.4
86034;BME280;76606;52.388;16.914;2024-03-22T14:55:09;100389.0;;;12.66;63.56
86034;BME280;76606;52.388;16.914;2024-03-22T15:10:09;100385.0;;;12.17;67.08
86034;BME280;76606;52.388;16.914;2024-03-22T15:25:09;100359.0;;;11.79;69.83
86034;BME280;76606;52.388;16.914;2024-03-22T15:40:09;100360.0;;;11.75;71.28
86034;BME280;76606;52.388;16.914;2024-03-22T15:55:09;100337.0;;;11.13;77.55
86034;BME280;76606;52.388;16.914;2024-03-22T16:10:09;100329.0;;;10.83;80.64
86034;BME280;76606;52.388;16.914;2024-03-22T16:25:09;100316.0;;;10.8;81.25
86034;BME280;76606;52.388;16.914;2024-03-22T16:40:09;100315.0;;;10.73;83.36
86034;BME280;76606;52.388;16.914;2024-03-22T16:55:09;100313.0;;;10.57;85.0
86034;BME280;76606;52.388;16.914;2024-03-22T17:10:09;100328.0;;;10.44;84.88
86034;BME280;76606;52.388;16.914;2024-03-22T17:25:09;100331.0;;;10.33;85.41
86034;BME280;76606;52.388;16.914;2024-03-22T17:40:09;100325.0;;;10.15;86.95
86034;BME280;76606;52.388;16.914;2024-03-22T18:00:09;100302.0;;;10.12;87.52
86034;BME280;76606;52.388;16.914;2024-03-22T18:15:09;100292.0;;;9.98;89.5
86034;BME280;76606;52.388;16.914;2024-03-22T18:30:09;100287.0;;;9.97;89.23
86034;BME280;76606;52.388;16.914;2024-03-22T18:45:09;100275.0;;;9.92;89.73
86034;BME280;76606;52.388;16.914;2024-03-22T19:00:09;100274.0;;;9.77;91.15
86034;BME280;76606;52.388;16.914;2024-03-22T19:15:09;100265.0;;;9.64;92.63
86034;BME280;76606;52.388;16.914;2024-03-22T19:30:09;100247.0;;;9.49;94.08
